sensor_id;sensor_type;location;lat;lon;timestamp;P1;durP1;ratioP1;P2;durP2;ratioP2
29916;SDS011;16786;49.466;11.068;2022-10-16T00:01:27;5.47;;;2.35;;
29916;SDS011;16786;49.466;11.068;2022-10-16T00:03:56;4.47;;;2.20;;
29916;SDS011;16786;49.466;11.068;2022-10-16T00:06:25;4.05;;;2.30;;
29916;SDS011;16786;49.466;11.068;2022-10-16T00:08:54;6.10;;;2.47;;
29916;SDS011;16786;49.466;11.068;2022-10-16T00:11:25;8.38;;;2.10;;
29916;SDS011;16786;49.466;11.068;2022-10-16T00:13:55;6.90;;;2.45;;
29916;SDS011;16786;49.466;11.068;2022-10-16T00:16:24;6.38;;;2.85;;
29916;SDS011;16786;49.466;11.068;2022-10-16T00:18:52;7.70;;;2.22;;
29916;SDS011;16786;49.466;11.068;2022-10-16T00:21:21;6.00;;;2.15;;
29916;SDS011;16786;49.466;11.068;2022-10-16T00:24:09;5.40;;;2.42;;
29916;SDS011;16786;49.466;11.068;2022-10-16T00:26:37;5.43;;;2.40;;
29916;SDS011;16786;49.466;11.068;2022-10-16T00:29:06;6.13;;;4.10;;
29916;SDS011;16786;49.466;11.068;2022-10-16T00:31:34;8.93;;;3.05;;
29916;SDS011;16786;49.466;11.068;2022-10-16T00:34:02;7.82;;;2.53;;
29916;SDS011;16786;49.466;11.068;2022-10-16T00:36:29;4.85;;;2.72;;
29916;SDS011;16786;49.466;11.068;2022-10-16T00:38:57;5.15;;;2.47;;
29916;SDS011;16786;49.466;11.068;2022-10-16T00:41:32;5.13;;;2.72;;
29916;SDS011;16786;49.466;11.068;2022-10-16T00:44:01;5.22;;;2.38;;
29916;SDS011;16786;49.466;11.068;2022-10-16T00:49:14;4.90;;;2.70;;
29916;SDS011;16786;49.466;11.068;2022-10-16T00:51:47;6.05;;;2.50;;
29916;SDS011;16786;49.466;11.068;2022-10-16T00:54:19;6.13;;;2.58;;
29916;SDS011;16786;49.466;11.068;2022-10-16T00:56:49;5.43;;;2.75;;
29916;SDS011;16786;49.466;11.068;2022-10-16T01:01:53;5.15;;;2.47;;
29916;SDS011;16786;49.466;11.068;2022-10-16T01:04:22;6.18;;;2.83;;
29916;SDS011;16786;49.466;11.068;2022-10-16T01:06:54;4.63;;;2.30;;
29916;SDS011;16786;49.466;11.068;2022-10-16T01:20:31;7.67;;;2.53;;
29916;SDS011;16786;49.466;11.068;2022-10-16T01:23:12;4.95;;;2.20;;
29916;SDS011;16786;49.466;11.068;2022-10-16T01:28:32;6.78;;;2.83;;
29916;SDS011;16786;49.466;11.068;2022-10-16T01:31:05;4.20;;;2.55;;
29916;SDS011;16786;49.466;11.068;2022-10-16T01:33:35;8.52;;;2.67;;
29916;SDS011;16786;49.466;11.068;2022-10-16T01:36:13;8.30;;;2.65;;
29916;SDS011;16786;49.466;11.068;2022-10-16T01:38:44;4.93;;;2.20;;
29916;SDS011;16786;49.466;11.068;2022-10-16T01:41:21;6.72;;;2.75;;
29916;SDS011;16786;49.466;11.068;2022-10-16T01:44:01;4.75;;;2.97;;
29916;SDS011;16786;49.466;11.068;2022-10-16T01:46:41;7.03;;;2.70;;
29916;SDS011;16786;49.466;11.068;2022-10-16T01:49:10;5.65;;;2.65;;
29916;SDS011;16786;49.466;11.068;2022-10-16T01:51:39;8.00;;;2.55;;
29916;SDS011;16786;49.466;11.068;2022-10-16T01:54:10;9.57;;;3.03;;
29916;SDS011;16786;49.466;11.068;2022-10-16T01:56:40;4.57;;;2.20;;
29916;SDS011;16786;49.466;11.068;2022-10-16T01:59:12;8.65;;;2.38;;
29916;SDS011;16786;49.466;11.068;2022-10-16T02:01:45;4.38;;;2.38;;
29916;SDS011;16786;49.466;11.068;2022-10-16T02:04:17;5.80;;;2.63;;
29916;SDS011;16786;49.466;11.068;2022-10-16T02:09:15;8.32;;;2.70;;
29916;SDS011;16786;49.466;11.068;2022-10-16T02:11:43;4.88;;;2.20;;
29916;SDS011;16786;49.466;11.068;2022-10-16T02:14:11;11.05;;;2.78;;
29916;SDS011;16786;49.466;11.068;2022-10-16T02:16:42;4.25;;;2.50;;
29916;SDS011;16786;49.466;11.068;2022-10-16T02:19:12;8.27;;;2.35;;
29916;SDS011;16786;49.466;11.068;2022-10-16T02:22:00;5.55;;;2.75;;
29916;SDS011;16786;49.466;11.068;2022-10-16T02:30:21;7.75;;;2.22;;
29916;SDS011;16786;49.466;11.068;2022-10-16T02:33:02;6.90;;;2.28;;
29916;SDS011;16786;49.466;11.068;2022-10-16T02:35:32;8.68;;;2.65;;
29916;SDS011;16786;49.466;11.068;2022-10-16T02:37:59;5.53;;;2.10;;
29916;SDS011;16786;49.466;11.068;2022-10-16T02:40:28;4.30;;;2.17;;
29916;SDS011;16786;49.466;11.068;2022-10-16T02:42:55;7.85;;;2.70;;
29916;SDS011;16786;49.466;11.068;2022-10-16T02:45:23;3.25;;;2.03;;
29916;SDS011;16786;49.466;11.068;2022-10-16T02:47:51;6.63;;;2.35;;
29916;SDS011;16786;49.466;11.068;2022-10-16T02:50:18;5.60;;;2.35;;
29916;SDS011;16786;49.466;11.068;2022-10-16T02:52:45;5.85;;;2.33;;
29916;SDS011;16786;49.466;11.068;2022-10-16T02:55:12;8.82;;;2.33;;
29916;SDS011;16786;49.466;11.068;2022-10-16T02:57:40;3.83;;;2.22;;
29916;SDS011;16786;49.466;11.068;2022-10-16T03:00:08;6.82;;;2.55;;
29916;SDS011;16786;49.466;11.068;2022-10-16T03:02:38;5.88;;;2.33;;
29916;SDS011;16786;49.466;11.068;2022-10-16T03:05:05;6.00;;;2.20;;
29916;SDS011;16786;49.466;11.068;2022-10-16T03:07:33;5.68;;;2.20;;
29916;SDS011;16786;49.466;11.068;2022-10-16T03:10:01;6.35;;;2.40;;
29916;SDS011;16786;49.466;11.068;2022-10-16T03:12:29;8.55;;;2.33;;
29916;SDS011;16786;49.466;11.068;2022-10-16T03:14:56;5.65;;;2.22;;
29916;SDS011;16786;49.466;11.068;2022-10-16T03:17:24;6.55;;;2.30;;
29916;SDS011;16786;49.466;11.068;2022-10-16T03:19:52;6.00;;;2.25;;
29916;SDS011;16786;49.466;11.068;2022-10-16T03:22:19;7.30;;;2.50;;
29916;SDS011;16786;49.466;11.068;2022-10-16T03:24:47;8.38;;;2.60;;
29916;SDS011;16786;49.466;11.068;2022-10-16T03:27:14;6.35;;;2.42;;
29916;SDS011;16786;49.466;11.068;2022-10-16T03:29:41;7.60;;;2.15;;
29916;SDS011;16786;49.466;11.068;2022-10-16T03:32:09;6.55;;;2.30;;
29916;SDS011;16786;49.466;11.068;2022-10-16T03:34:36;5.07;;;2.60;;
29916;SDS011;16786;49.466;11.068;2022-10-16T03:37:03;5.57;;;2.40;;
29916;SDS011;16786;49.466;11.068;2022-10-16T03:39:30;5.30;;;2.50;;
29916;SDS011;16786;49.466;11.068;2022-10-16T03:41:58;7.07;;;2.28;;
29916;SDS011;16786;49.466;11.068;2022-10-16T03:44:25;6.55;;;2.63;;
29916;SDS011;16786;49.466;11.068;2022-10-16T03:46:52;6.80;;;2.20;;
29916;SDS011;16786;49.466;11.068;2022-10-16T03:49:19;4.35;;;2.33;;
29916;SDS011;16786;49.466;11.068;2022-10-16T03:51:47;5.38;;;2.38;;
29916;SDS011;16786;49.466;11.068;2022-10-16T03:54:14;4.28;;;2.40;;
29916;SDS011;16786;49.466;11.068;2022-10-16T03:56:41;4.95;;;2.28;;
29916;SDS011;16786;49.466;11.068;2022-10-16T03:59:09;3.60;;;2.17;;
29916;SDS011;16786;49.466;11.068;2022-10-16T04:01:36;8.02;;;2.30;;
29916;SDS011;16786;49.466;11.068;2022-10-16T04:04:03;4.00;;;2.53;;
29916;SDS011;16786;49.466;11.068;2022-10-16T04:06:31;4.70;;;2.70;;
29916;SDS011;16786;49.466;11.068;2022-10-16T04:08:58;9.75;;;2.50;;
29916;SDS011;16786;49.466;11.068;2022-10-16T04:11:25;4.10;;;2.00;;
29916;SDS011;16786;49.466;11.068;2022-10-16T04:13:52;3.72;;;1.85;;
29916;SDS011;16786;49.466;11.068;2022-10-16T04:16:20;6.18;;;2.08;;
29916;SDS011;16786;49.466;11.068;2022-10-16T04:18:47;6.20;;;2.42;;
29916;SDS011;16786;49.466;11.068;2022-10-16T04:21:14;5.85;;;2.47;;
29916;SDS011;16786;49.466;11.068;2022-10-16T04:23:42;6.43;;;2.28;;
29916;SDS011;16786;49.466;11.068;2022-10-16T04:26:09;6.47;;;2.40;;
29916;SDS011;16786;49.466;11.068;2022-10-16T04:28:37;5.28;;;2.20;;
29916;SDS011;16786;49.466;11.068;2022-10-16T04:31:05;6.18;;;2.55;;
29916;SDS011;16786;49.466;11.068;2022-10-16T04:33:33;5.07;;;2.47;;
29916;SDS011;16786;49.466;11.068;2022-10-16T04:36:01;6.68;;;2.28;;
29916;SDS011;16786;49.466;11.068;2022-10-16T04:38:29;5.18;;;2.53;;
29916;SDS011;16786;49.466;11.068;2022-10-16T04:40:57;4.25;;;2.42;;
29916;SDS011;16786;49.466;11.068;2022-10-16T04:43:24;3.90;;;2.15;;
29916;SDS011;16786;49.466;11.068;2022-10-16T04:45:52;6.60;;;2.30;;
29916;SDS011;16786;49.466;11.068;2022-10-16T04:48:21;8.00;;;2.80;;
29916;SDS011;16786;49.466;11.068;2022-10-16T04:50:48;4.20;;;2.40;;
29916;SDS011;16786;49.466;11.068;2022-10-16T04:55:48;7.00;;;2.40;;
29916;SDS011;16786;49.466;11.068;2022-10-16T04:58:16;7.30;;;2.47;;
29916;SDS011;16786;49.466;11.068;2022-10-16T05:00:44;12.98;;;2.80;;
29916;SDS011;16786;49.466;11.068;2022-10-16T05:03:12;4.45;;;2.40;;
29916;SDS011;16786;49.466;11.068;2022-10-16T05:05:43;6.38;;;2.42;;
29916;SDS011;16786;49.466;11.068;2022-10-16T05:08:12;4.33;;;2.30;;
29916;SDS011;16786;49.466;11.068;2022-10-16T05:10:41;5.22;;;2.13;;
29916;SDS011;16786;49.466;11.068;2022-10-16T05:13:12;6.28;;;2.65;;
29916;SDS011;16786;49.466;11.068;2022-10-16T05:15:46;4.90;;;2.03;;
29916;SDS011;16786;49.466;11.068;2022-10-16T05:18:15;6.93;;;2.90;;
29916;SDS011;16786;49.466;11.068;2022-10-16T05:20:43;4.47;;;2.10;;
29916;SDS011;16786;49.466;11.068;2022-10-16T05:23:10;6.15;;;2.20;;
29916;SDS011;16786;49.466;11.068;2022-10-16T05:25:39;4.20;;;2.38;;
29916;SDS011;16786;49.466;11.068;2022-10-16T05:28:06;6.28;;;2.55;;
29916;SDS011;16786;49.466;11.068;2022-10-16T05:30:33;7.50;;;2.80;;
29916;SDS011;16786;49.466;11.068;2022-10-16T05:33:03;6.07;;;3.10;;
29916;SDS011;16786;49.466;11.068;2022-10-16T05:35:30;6.63;;;3.75;;
29916;SDS011;16786;49.466;11.068;2022-10-16T05:37:58;8.55;;;3.22;;
29916;SDS011;16786;49.466;11.068;2022-10-16T05:40:25;8.10;;;4.45;;
29916;SDS011;16786;49.466;11.068;2022-10-16T05:42:56;6.82;;;3.60;;
29916;SDS011;16786;49.466;11.068;2022-10-16T05:45:23;5.30;;;2.42;;
29916;SDS011;16786;49.466;11.068;2022-10-16T05:47:50;5.05;;;2.25;;
29916;SDS011;16786;49.466;11.068;2022-10-16T05:50:18;5.55;;;2.55;;
29916;SDS011;16786;49.466;11.068;2022-10-16T05:52:45;7.10;;;2.63;;
29916;SDS011;16786;49.466;11.068;2022-10-16T05:55:12;5.60;;;2.50;;
29916;SDS011;16786;49.466;11.068;2022-10-16T05:57:40;5.75;;;2.88;;
29916;SDS011;16786;49.466;11.068;2022-10-16T06:00:10;6.68;;;2.70;;
29916;SDS011;16786;49.466;11.068;2022-10-16T06:02:38;6.10;;;2.38;;
29916;SDS011;16786;49.466;11.068;2022-10-16T06:05:05;7.57;;;3.20;;
29916;SDS011;16786;49.466;11.068;2022-10-16T06:07:36;4.50;;;2.35;;
29916;SDS011;16786;49.466;11.068;2022-10-16T06:10:03;4.30;;;2.33;;
29916;SDS011;16786;49.466;11.068;2022-10-16T06:12:32;6.82;;;2.30;;
29916;SDS011;16786;49.466;11.068;2022-10-16T06:15:00;6.25;;;2.65;;
29916;SDS011;16786;49.466;11.068;2022-10-16T06:17:28;12.25;;;3.97;;
29916;SDS011;16786;49.466;11.068;2022-10-16T06:19:55;6.88;;;3.08;;
29916;SDS011;16786;49.466;11.068;2022-10-16T06:22:22;4.85;;;2.60;;
29916;SDS011;16786;49.466;11.068;2022-10-16T06:24:50;5.55;;;2.17;;
29916;SDS011;16786;49.466;11.068;2022-10-16T06:27:17;5.93;;;2.47;;
29916;SDS011;16786;49.466;11.068;2022-10-16T06:29:44;8.57;;;2.63;;
29916;SDS011;16786;49.466;11.068;2022-10-16T06:32:12;4.50;;;2.42;;
29916;SDS011;16786;49.466;11.068;2022-10-16T06:34:39;4.90;;;2.35;;
29916;SDS011;16786;49.466;11.068;2022-10-16T06:37:09;6.00;;;2.40;;
29916;SDS011;16786;49.466;11.068;2022-10-16T06:39:37;6.80;;;2.70;;
29916;SDS011;16786;49.466;11.068;2022-10-16T06:42:04;10.80;;;2.80;;
29916;SDS011;16786;49.466;11.068;2022-10-16T06:44:35;6.40;;;2.50;;
29916;SDS011;16786;49.466;11.068;2022-10-16T06:47:02;7.03;;;2.45;;
29916;SDS011;16786;49.466;11.068;2022-10-16T06:49:30;5.85;;;3.00;;
29916;SDS011;16786;49.466;11.068;2022-10-16T06:51:57;7.70;;;3.00;;
29916;SDS011;16786;49.466;11.068;2022-10-16T06:54:25;5.63;;;2.70;;
29916;SDS011;16786;49.466;11.068;2022-10-16T06:56:52;8.40;;;2.65;;
29916;SDS011;16786;49.466;11.068;2022-10-16T06:59:21;4.55;;;2.42;;
29916;SDS011;16786;49.466;11.068;2022-10-16T07:01:48;6.00;;;2.63;;
29916;SDS011;16786;49.466;11.068;2022-10-16T07:04:16;4.95;;;2.83;;
29916;SDS011;16786;49.466;11.068;2022-10-16T07:06:43;9.32;;;2.72;;
29916;SDS011;16786;49.466;11.068;2022-10-16T07:09:10;10.35;;;2.70;;
29916;SDS011;16786;49.466;11.068;2022-10-16T07:11:38;6.35;;;2.60;;
29916;SDS011;16786;49.466;11.068;2022-10-16T07:14:14;5.97;;;3.38;;
29916;SDS011;16786;49.466;11.068;2022-10-16T07:16:43;7.47;;;2.80;;
29916;SDS011;16786;49.466;11.068;2022-10-16T07:19:11;4.22;;;2.30;;
29916;SDS011;16786;49.466;11.068;2022-10-16T07:21:41;7.38;;;2.78;;
29916;SDS011;16786;49.466;11.068;2022-10-16T07:24:12;6.47;;;3.10;;
29916;SDS011;16786;49.466;11.068;2022-10-16T07:26:42;6.45;;;2.50;;
29916;SDS011;16786;49.466;11.068;2022-10-16T07:29:12;8.77;;;2.88;;
29916;SDS011;16786;49.466;11.068;2022-10-16T07:31:41;7.18;;;2.42;;
29916;SDS011;16786;49.466;11.068;2022-10-16T07:34:09;6.13;;;2.70;;
29916;SDS011;16786;49.466;11.068;2022-10-16T07:36:38;5.30;;;2.75;;
29916;SDS011;16786;49.466;11.068;2022-10-16T07:39:05;7.03;;;3.25;;
29916;SDS011;16786;49.466;11.068;2022-10-16T07:41:33;6.85;;;2.50;;
29916;SDS011;16786;49.466;11.068;2022-10-16T07:44:03;11.35;;;3.78;;
29916;SDS011;16786;49.466;11.068;2022-10-16T07:46:31;9.38;;;3.47;;
29916;SDS011;16786;49.466;11.068;2022-10-16T07:49:00;9.60;;;3.38;;
29916;SDS011;16786;49.466;11.068;2022-10-16T07:51:27;6.05;;;3.08;;
29916;SDS011;16786;49.466;11.068;2022-10-16T07:53:54;8.27;;;3.97;;
29916;SDS011;16786;49.466;11.068;2022-10-16T07:56:22;9.50;;;4.30;;
29916;SDS011;16786;49.466;11.068;2022-10-16T07:58:49;6.10;;;3.20;;
29916;SDS011;16786;49.466;11.068;2022-10-16T08:01:18;9.93;;;2.92;;
29916;SDS011;16786;49.466;11.068;2022-10-16T08:03:47;7.93;;;3.72;;
29916;SDS011;16786;49.466;11.068;2022-10-16T08:06:16;6.88;;;2.88;;
29916;SDS011;16786;49.466;11.068;2022-10-16T08:08:49;7.88;;;3.38;;
29916;SDS011;16786;49.466;11.068;2022-10-16T08:11:17;8.65;;;5.40;;
29916;SDS011;16786;49.466;11.068;2022-10-16T08:13:44;7.03;;;2.70;;
29916;SDS011;16786;49.466;11.068;2022-10-16T08:16:11;11.30;;;2.83;;
29916;SDS011;16786;49.466;11.068;2022-10-16T08:18:39;6.35;;;2.85;;
29916;SDS011;16786;49.466;11.068;2022-10-16T08:21:11;7.38;;;2.28;;
29916;SDS011;16786;49.466;11.068;2022-10-16T08:23:47;6.47;;;3.08;;
29916;SDS011;16786;49.466;11.068;2022-10-16T08:26:24;6.00;;;3.80;;
29916;SDS011;16786;49.466;11.068;2022-10-16T08:28:52;7.50;;;3.90;;
29916;SDS011;16786;49.466;11.068;2022-10-16T08:31:20;7.85;;;3.88;;
29916;SDS011;16786;49.466;11.068;2022-10-16T08:33:48;5.72;;;2.60;;
29916;SDS011;16786;49.466;11.068;2022-10-16T08:36:16;4.78;;;2.72;;
29916;SDS011;16786;49.466;11.068;2022-10-16T08:38:43;6.35;;;2.80;;
29916;SDS011;16786;49.466;11.068;2022-10-16T08:49:33;5.95;;;3.50;;
29916;SDS011;16786;49.466;11.068;2022-10-16T08:52:00;5.93;;;3.20;;
29916;SDS011;16786;49.466;11.068;2022-10-16T08:54:37;7.07;;;3.05;;
29916;SDS011;16786;49.466;11.068;2022-10-16T08:57:20;6.13;;;3.08;;
29916;SDS011;16786;49.466;11.068;2022-10-16T08:59:50;10.00;;;3.30;;
29916;SDS011;16786;49.466;11.068;2022-10-16T09:02:38;8.70;;;5.40;;
29916;SDS011;16786;49.466;11.068;2022-10-16T09:05:24;5.53;;;2.90;;
29916;SDS011;16786;49.466;11.068;2022-10-16T09:10:58;6.82;;;2.70;;
29916;SDS011;16786;49.466;11.068;2022-10-16T09:16:20;4.72;;;2.60;;
29916;SDS011;16786;49.466;11.068;2022-10-16T09:18:58;6.60;;;3.15;;
29916;SDS011;16786;49.466;11.068;2022-10-16T09:21:36;6.32;;;3.03;;
29916;SDS011;16786;49.466;11.068;2022-10-16T09:24:16;6.97;;;3.15;;
29916;SDS011;16786;49.466;11.068;2022-10-16T09:26:45;9.45;;;2.97;;
29916;SDS011;16786;49.466;11.068;2022-10-16T09:29:16;8.02;;;2.72;;
29916;SDS011;16786;49.466;11.068;2022-10-16T09:31:47;8.95;;;2.65;;
29916;SDS011;16786;49.466;11.068;2022-10-16T09:34:35;4.55;;;2.30;;
29916;SDS011;16786;49.466;11.068;2022-10-16T09:37:12;7.15;;;2.55;;
29916;SDS011;16786;49.466;11.068;2022-10-16T09:39:45;6.90;;;2.30;;
29916;SDS011;16786;49.466;11.068;2022-10-16T09:42:17;5.72;;;2.40;;
29916;SDS011;16786;49.466;11.068;2022-10-16T09:44:51;7.93;;;2.30;;
29916;SDS011;16786;49.466;11.068;2022-10-16T09:47:21;5.93;;;2.35;;
29916;SDS011;16786;49.466;11.068;2022-10-16T09:49:57;4.95;;;2.20;;
29916;SDS011;16786;49.466;11.068;2022-10-16T09:52:33;6.15;;;2.70;;
29916;SDS011;16786;49.466;11.068;2022-10-16T09:55:02;4.05;;;2.40;;
29916;SDS011;16786;49.466;11.068;2022-10-16T09:57:54;4.20;;;2.30;;
29916;SDS011;16786;49.466;11.068;2022-10-16T10:00:23;6.43;;;3.42;;
29916;SDS011;16786;49.466;11.068;2022-10-16T10:02:52;4.95;;;2.83;;
29916;SDS011;16786;49.466;11.068;2022-10-16T10:05:27;3.53;;;2.25;;
29916;SDS011;16786;49.466;11.068;2022-10-16T10:07:59;9.50;;;2.88;;
29916;SDS011;16786;49.466;11.068;2022-10-16T10:10:33;8.93;;;2.38;;
29916;SDS011;16786;49.466;11.068;2022-10-16T10:13:21;5.97;;;2.53;;
29916;SDS011;16786;49.466;11.068;2022-10-16T10:15:51;5.65;;;2.70;;
29916;SDS011;16786;49.466;11.068;2022-10-16T10:18:20;5.82;;;2.55;;
29916;SDS011;16786;49.466;11.068;2022-10-16T10:20:57;5.03;;;2.80;;
29916;SDS011;16786;49.466;11.068;2022-10-16T10:23:27;6.18;;;2.50;;
29916;SDS011;16786;49.466;11.068;2022-10-16T10:39:55;5.75;;;3.28;;
29916;SDS011;16786;49.466;11.068;2022-10-16T10:42:40;9.00;;;3.63;;
29916;SDS011;16786;49.466;11.068;2022-10-16T11:07:58;4.57;;;3.00;;
29916;SDS011;16786;49.466;11.068;2022-10-16T11:10:37;6.75;;;2.92;;
29916;SDS011;16786;49.466;11.068;2022-10-16T11:13:20;6.63;;;3.40;;
29916;SDS011;16786;49.466;11.068;2022-10-16T11:16:37;8.30;;;3.58;;
29916;SDS011;16786;49.466;11.068;2022-10-16T11:21:31;11.75;;;3.20;;
29916;SDS011;16786;49.466;11.068;2022-10-16T11:24:11;7.47;;;2.65;;
29916;SDS011;16786;49.466;11.068;2022-10-16T11:26:45;7.22;;;3.40;;
29916;SDS011;16786;49.466;11.068;2022-10-16T11:29:18;6.88;;;3.17;;
29916;SDS011;16786;49.466;11.068;2022-10-16T11:31:59;6.47;;;3.67;;
29916;SDS011;16786;49.466;11.068;2022-10-16T11:34:34;6.43;;;3.58;;
29916;SDS011;16786;49.466;11.068;2022-10-16T11:37:10;8.48;;;3.28;;
29916;SDS011;16786;49.466;11.068;2022-10-16T11:39:40;7.25;;;2.70;;
29916;SDS011;16786;49.466;11.068;2022-10-16T11:47:45;8.75;;;3.10;;
29916;SDS011;16786;49.466;11.068;2022-10-16T11:50:37;5.93;;;3.17;;
29916;SDS011;16786;49.466;11.068;2022-10-16T11:55:50;9.00;;;3.45;;
29916;SDS011;16786;49.466;11.068;2022-10-16T12:00:56;4.82;;;2.90;;
29916;SDS011;16786;49.466;11.068;2022-10-16T12:03:29;5.85;;;3.50;;
29916;SDS011;16786;49.466;11.068;2022-10-16T12:06:22;5.13;;;3.10;;
29916;SDS011;16786;49.466;11.068;2022-10-16T12:09:02;8.27;;;3.53;;
29916;SDS011;16786;49.466;11.068;2022-10-16T12:11:36;5.47;;;3.42;;
29916;SDS011;16786;49.466;11.068;2022-10-16T12:14:05;7.90;;;3.20;;
29916;SDS011;16786;49.466;11.068;2022-10-16T12:19:24;6.85;;;3.30;;
29916;SDS011;16786;49.466;11.068;2022-10-16T12:21:57;5.57;;;3.40;;
29916;SDS011;16786;49.466;11.068;2022-10-16T12:26:54;6.57;;;3.60;;
29916;SDS011;16786;49.466;11.068;2022-10-16T12:29:41;5.38;;;3.75;;
29916;SDS011;16786;49.466;11.068;2022-10-16T12:32:29;10.00;;;3.75;;
29916;SDS011;16786;49.466;11.068;2022-10-16T12:35:18;5.63;;;3.58;;
29916;SDS011;16786;49.466;11.068;2022-10-16T12:37:48;6.70;;;4.40;;
29916;SDS011;16786;49.466;11.068;2022-10-16T12:40:26;5.05;;;4.10;;
29916;SDS011;16786;49.466;11.068;2022-10-16T12:42:57;9.13;;;4.15;;
29916;SDS011;16786;49.466;11.068;2022-10-16T12:45:26;5.28;;;3.65;;
29916;SDS011;16786;49.466;11.068;2022-10-16T12:47:54;7.25;;;4.13;;
29916;SDS011;16786;49.466;11.068;2022-10-16T12:50:43;4.53;;;3.90;;
29916;SDS011;16786;49.466;11.068;2022-10-16T12:53:21;4.30;;;3.90;;
29916;SDS011;16786;49.466;11.068;2022-10-16T13:04:29;5.20;;;3.90;;
29916;SDS011;16786;49.466;11.068;2022-10-16T13:09:55;4.50;;;4.00;;
29916;SDS011;16786;49.466;11.068;2022-10-16T13:12:45;5.50;;;3.55;;
29916;SDS011;16786;49.466;11.068;2022-10-16T13:15:26;4.30;;;3.90;;
29916;SDS011;16786;49.466;11.068;2022-10-16T13:18:13;12.30;;;4.05;;
29916;SDS011;16786;49.466;11.068;2022-10-16T13:28:46;5.40;;;3.60;;
29916;SDS011;16786;49.466;11.068;2022-10-16T13:31:20;6.45;;;3.88;;
29916;SDS011;16786;49.466;11.068;2022-10-16T13:33:53;7.90;;;4.05;;
29916;SDS011;16786;49.466;11.068;2022-10-16T13:36:27;6.15;;;3.60;;
29916;SDS011;16786;49.466;11.068;2022-10-16T13:39:12;6.40;;;4.10;;
29916;SDS011;16786;49.466;11.068;2022-10-16T13:42:04;7.65;;;4.40;;
29916;SDS011;16786;49.466;11.068;2022-10-16T13:44:44;6.10;;;4.00;;
29916;SDS011;16786;49.466;11.068;2022-10-16T13:47:21;4.25;;;3.67;;
29916;SDS011;16786;49.466;11.068;2022-10-16T13:50:05;5.72;;;3.72;;
29916;SDS011;16786;49.466;11.068;2022-10-16T13:52:37;4.28;;;3.47;;
29916;SDS011;16786;49.466;11.068;2022-10-16T13:55:15;4.75;;;3.72;;
29916;SDS011;16786;49.466;11.068;2022-10-16T13:57:44;5.68;;;3.83;;
29916;SDS011;16786;49.466;11.068;2022-10-16T14:02:49;6.82;;;3.60;;
29916;SDS011;16786;49.466;11.068;2022-10-16T14:05:47;4.65;;;4.15;;
29916;SDS011;16786;49.466;11.068;2022-10-16T14:08:17;6.38;;;3.95;;
29916;SDS011;16786;49.466;11.068;2022-10-16T14:10:55;5.25;;;3.90;;
29916;SDS011;16786;49.466;11.068;2022-10-16T14:13:29;4.15;;;3.75;;
29916;SDS011;16786;49.466;11.068;2022-10-16T14:16:02;6.13;;;3.90;;
29916;SDS011;16786;49.466;11.068;2022-10-16T14:18:35;5.38;;;3.90;;
29916;SDS011;16786;49.466;11.068;2022-10-16T14:21:05;6.13;;;4.40;;
29916;SDS011;16786;49.466;11.068;2022-10-16T14:23:39;5.18;;;3.75;;
29916;SDS011;16786;49.466;11.068;2022-10-16T14:28:41;6.75;;;3.85;;
29916;SDS011;16786;49.466;11.068;2022-10-16T14:31:29;4.78;;;3.97;;
29916;SDS011;16786;49.466;11.068;2022-10-16T14:33:58;6.15;;;3.78;;
29916;SDS011;16786;49.466;11.068;2022-10-16T14:36:27;4.53;;;3.53;;
29916;SDS011;16786;49.466;11.068;2022-10-16T14:41:55;7.45;;;4.60;;
29916;SDS011;16786;49.466;11.068;2022-10-16T14:44:33;6.57;;;4.22;;
29916;SDS011;16786;49.466;11.068;2022-10-16T14:47:12;6.80;;;4.13;;
29916;SDS011;16786;49.466;11.068;2022-10-16T14:49:42;4.80;;;4.18;;
29916;SDS011;16786;49.466;11.068;2022-10-16T14:52:10;7.10;;;4.90;;
29916;SDS011;16786;49.466;11.068;2022-10-16T14:54:39;4.72;;;4.18;;
29916;SDS011;16786;49.466;11.068;2022-10-16T14:57:15;7.45;;;4.60;;
29916;SDS011;16786;49.466;11.068;2022-10-16T14:59:45;5.72;;;4.95;;
29916;SDS011;16786;49.466;11.068;2022-10-16T15:07:53;5.75;;;4.65;;
29916;SDS011;16786;49.466;11.068;2022-10-16T15:10:22;5.97;;;4.50;;
29916;SDS011;16786;49.466;11.068;2022-10-16T15:12:52;5.55;;;3.83;;
29916;SDS011;16786;49.466;11.068;2022-10-16T15:17:51;8.60;;;4.97;;
29916;SDS011;16786;49.466;11.068;2022-10-16T15:20:23;9.63;;;4.90;;
29916;SDS011;16786;49.466;11.068;2022-10-16T15:22:51;7.10;;;4.68;;
29916;SDS011;16786;49.466;11.068;2022-10-16T15:27:55;5.78;;;4.68;;
29916;SDS011;16786;49.466;11.068;2022-10-16T15:30:23;6.35;;;4.70;;
29916;SDS011;16786;49.466;11.068;2022-10-16T15:32:51;7.82;;;4.63;;
29916;SDS011;16786;49.466;11.068;2022-10-16T15:35:19;5.93;;;4.65;;
29916;SDS011;16786;49.466;11.068;2022-10-16T15:37:46;7.32;;;5.10;;
29916;SDS011;16786;49.466;11.068;2022-10-16T15:40:15;7.00;;;5.03;;
29916;SDS011;16786;49.466;11.068;2022-10-16T15:42:44;7.75;;;4.75;;
29916;SDS011;16786;49.466;11.068;2022-10-16T15:45:12;6.85;;;5.55;;
29916;SDS011;16786;49.466;11.068;2022-10-16T15:47:40;7.72;;;5.43;;
29916;SDS011;16786;49.466;11.068;2022-10-16T15:50:12;7.13;;;5.70;;
29916;SDS011;16786;49.466;11.068;2022-10-16T15:52:40;8.80;;;4.97;;
29916;SDS011;16786;49.466;11.068;2022-10-16T15:55:08;7.63;;;5.70;;
29916;SDS011;16786;49.466;11.068;2022-10-16T15:57:38;9.07;;;5.68;;
29916;SDS011;16786;49.466;11.068;2022-10-16T16:00:07;6.50;;;5.72;;
29916;SDS011;16786;49.466;11.068;2022-10-16T16:02:38;9.30;;;6.45;;
29916;SDS011;16786;49.466;11.068;2022-10-16T16:05:06;15.82;;;8.55;;
29916;SDS011;16786;49.466;11.068;2022-10-16T16:07:35;23.58;;;10.32;;
29916;SDS011;16786;49.466;11.068;2022-10-16T16:10:04;11.77;;;7.40;;
29916;SDS011;16786;49.466;11.068;2022-10-16T16:12:33;12.23;;;6.18;;
29916;SDS011;16786;49.466;11.068;2022-10-16T16:15:02;9.70;;;6.53;;
29916;SDS011;16786;49.466;11.068;2022-10-16T16:17:32;15.00;;;6.80;;
29916;SDS011;16786;49.466;11.068;2022-10-16T16:20:00;10.57;;;5.88;;
29916;SDS011;16786;49.466;11.068;2022-10-16T16:22:28;9.75;;;5.80;;
29916;SDS011;16786;49.466;11.068;2022-10-16T16:24:56;11.85;;;5.97;;
29916;SDS011;16786;49.466;11.068;2022-10-16T16:27:23;10.40;;;6.25;;
29916;SDS011;16786;49.466;11.068;2022-10-16T16:29:52;8.48;;;5.75;;
29916;SDS011;16786;49.466;11.068;2022-10-16T16:32:21;9.57;;;6.32;;
29916;SDS011;16786;49.466;11.068;2022-10-16T16:34:49;9.43;;;6.53;;
29916;SDS011;16786;49.466;11.068;2022-10-16T16:37:16;9.45;;;6.18;;
29916;SDS011;16786;49.466;11.068;2022-10-16T16:39:43;9.93;;;6.25;;
29916;SDS011;16786;49.466;11.068;2022-10-16T16:42:11;9.85;;;6.53;;
29916;SDS011;16786;49.466;11.068;2022-10-16T16:44:38;9.95;;;5.60;;
29916;SDS011;16786;49.466;11.068;2022-10-16T16:47:05;11.32;;;5.60;;
29916;SDS011;16786;49.466;11.068;2022-10-16T16:49:33;9.20;;;6.00;;
29916;SDS011;16786;49.466;11.068;2022-10-16T16:52:00;7.60;;;5.22;;
29916;SDS011;16786;49.466;11.068;2022-10-16T16:54:27;10.85;;;6.43;;
29916;SDS011;16786;49.466;11.068;2022-10-16T16:56:55;9.63;;;6.00;;
29916;SDS011;16786;49.466;11.068;2022-10-16T16:59:22;11.82;;;5.95;;
29916;SDS011;16786;49.466;11.068;2022-10-16T17:01:50;11.80;;;6.10;;
29916;SDS011;16786;49.466;11.068;2022-10-16T17:04:22;8.35;;;5.97;;
29916;SDS011;16786;49.466;11.068;2022-10-16T17:06:50;8.63;;;5.60;;
29916;SDS011;16786;49.466;11.068;2022-10-16T17:09:20;10.98;;;6.28;;
29916;SDS011;16786;49.466;11.068;2022-10-16T17:11:47;10.60;;;5.93;;
29916;SDS011;16786;49.466;11.068;2022-10-16T17:14:14;13.77;;;6.70;;